Private Wetterstation Sandau
Wetterdaten: Samstag, 26.05.2012
Datum Zeit Temp. A. Feuchte A. Luftdruck Regen Wind Richtung Richtung Taupunkt Windchill
26.05.2012 00:01 14,7 C 46 % 1026,8 hPa 0,0 l/m 6,1 km/h (2 Bft) O-NO 67 3,2 C 14,7 C
26.05.2012 00:06 14,6 C 46 % 1026,8 hPa 0,0 l/m 5,8 km/h (2 Bft) O-NO 67 3,1 C 14,6 C
26.05.2012 00:11 14,5 C 47 % 1026,8 hPa 0,0 l/m 4,7 km/h (1 Bft) O 90 3,3 C 14,5 C
26.05.2012 00:16 14,4 C 47 % 1026,7 hPa 0,0 l/m 3,2 km/h (1 Bft) O-SO 112 3,2 C 14,4 C
26.05.2012 00:21 14,4 C 48 % 1026,8 hPa 0,0 l/m 5,4 km/h (1 Bft) O-NO 67 3,5 C 14,4 C
26.05.2012 00:26 14,3 C 48 % 1026,8 hPa 0,0 l/m 0,0 km/h (0 Bft) O-NO 67 3,4 C 14,3 C
26.05.2012 00:31 14,2 C 48 % 1026,7 hPa 0,0 l/m 0,0 km/h (0 Bft) O 90 3,4 C 14,2 C
26.05.2012 00:36 14,1 C 49 % 1026,8 hPa 0,0 l/m 1,4 km/h (1 Bft) O-NO 67 3,6 C 14,1 C
26.05.2012 00:41 14,1 C 49 % 1026,8 hPa 0,0 l/m 2,2 km/h (1 Bft) O-SO 112 3,6 C 14,1 C
26.05.2012 00:46 14,1 C 49 % 1026,8 hPa 0,0 l/m 0,0 km/h (0 Bft) O-NO 67 3,6 C 14,1 C
26.05.2012 00:51 14,0 C 50 % 1026,8 hPa 0,0 l/m 2,5 km/h (1 Bft) O 90 3,7 C 14,0 C
26.05.2012 00:56 13,9 C 50 % 1026,8 hPa 0,0 l/m 0,0 km/h (0 Bft) SO 135 3,7 C 13,9 C
26.05.2012 01:01 13,9 C 51 % 1026,6 hPa 0,0 l/m 3,6 km/h (1 Bft) O-NO 67 3,9 C 13,9 C
26.05.2012 01:06 13,8 C 52 % 1026,5 hPa 0,0 l/m 6,8 km/h (2 Bft) O-NO 67 4,1 C 13,8 C
26.05.2012 01:11 13,6 C 52 % 1026,6 hPa 0,0 l/m 9,0 km/h (2 Bft) O-NO 67 3,9 C 13,6 C
26.05.2012 01:16 13,6 C 52 % 1026,5 hPa 0,0 l/m 5,4 km/h (1 Bft) O 90 3,9 C 13,6 C
26.05.2012 01:21 13,4 C 53 % 1026,6 hPa 0,0 l/m 2,5 km/h (1 Bft) O-NO 67 4,0 C 13,4 C
26.05.2012 01:26 13,3 C 53 % 1026,6 hPa 0,0 l/m 6,5 km/h (2 Bft) O-NO 67 3,9 C 13,3 C
26.05.2012 01:31 13,3 C 53 % 1026,5 hPa 0,0 l/m 7,2 km/h (2 Bft) NO 45 3,9 C 13,3 C
26.05.2012 01:36 13,3 C 54 % 1026,6 hPa 0,0 l/m 3,6 km/h (1 Bft) O-NO 67 4,2 C 13,3 C
26.05.2012 01:41 13,3 C 54 % 1026,7 hPa 0,0 l/m 4,7 km/h (1 Bft) O-NO 67 4,2 C 13,3 C
26.05.2012 01:46 13,2 C 54 % 1026,6 hPa 0,0 l/m 4,7 km/h (1 Bft) O-SO 112 4,1 C 13,2 C
26.05.2012 01:51 13,2 C 55 % 1026,6 hPa 0,0 l/m 3,2 km/h (1 Bft) O-NO 67 4,4 C 13,2 C
26.05.2012 01:56 13,1 C 55 % 1026,6 hPa 0,0 l/m 4,3 km/h (1 Bft) O-NO 67 4,3 C 13,1 C
26.05.2012 02:01 12,9 C 55 % 1026,5 hPa 0,0 l/m 4,7 km/h (1 Bft) O-NO 67 4,1 C 12,9 C
26.05.2012 02:06 12,9 C 56 % 1026,5 hPa 0,0 l/m 6,5 km/h (2 Bft) O-SO 112 4,3 C 12,9 C
26.05.2012 02:11 12,9 C 56 % 1026,5 hPa 0,0 l/m 9,4 km/h (2 Bft) O-NO 67 4,3 C 12,9 C
26.05.2012 02:16 12,8 C 56 % 1026,5 hPa 0,0 l/m 5,0 km/h (1 Bft) O 90 4,2 C 12,8 C
26.05.2012 02:21 12,7 C 57 % 1026,5 hPa 0,0 l/m 3,2 km/h (1 Bft) O-NO 67 4,4 C 12,7 C
26.05.2012 02:26 12,6 C 57 % 1026,5 hPa 0,0 l/m 6,5 km/h (2 Bft) NO 45 4,3 C 12,6 C
26.05.2012 02:31 12,6 C 57 % 1026,6 hPa 0,0 l/m 6,1 km/h (2 Bft) O-NO 67 4,3 C 12,6 C
26.05.2012 02:36 12,5 C 57 % 1026,5 hPa 0,0 l/m 6,1 km/h (2 Bft) O 90 4,2 C 12,5 C
26.05.2012 02:41 12,4 C 58 % 1026,5 hPa 0,0 l/m 9,7 km/h (2 Bft) O-NO 67 4,4 C 12,4 C
26.05.2012 02:46 12,4 C 58 % 1026,5 hPa 0,0 l/m 6,1 km/h (2 Bft) O-NO 67 4,4 C 12,4 C
26.05.2012 02:51 12,4 C 58 % 1026,5 hPa 0,0 l/m 4,0 km/h (1 Bft) O-NO 67 4,4 C 12,4 C
26.05.2012 02:56 12,4 C 58 % 1026,4 hPa 0,0 l/m 4,3 km/h (1 Bft) NO 45 4,4 C 12,4 C
26.05.2012 03:01 12,3 C 58 % 1026,4 hPa 0,0 l/m 6,5 km/h (2 Bft) O-NO 67 4,3 C 12,3 C
26.05.2012 03:06 12,3 C 58 % 1026,5 hPa 0,0 l/m 3,2 km/h (1 Bft) O 90 4,3 C 12,3 C
26.05.2012 03:11 12,2 C 58 % 1026,4 hPa 0,0 l/m 5,0 km/h (1 Bft) O 90 4,2 C 12,2 C
26.05.2012 03:16 12,1 C 58 % 1026,5 hPa 0,0 l/m 7,6 km/h (2 Bft) O-NO 67 4,1 C 12,1 C
26.05.2012 03:21 12,1 C 58 % 1026,5 hPa 0,0 l/m 4,0 km/h (1 Bft) O 90 4,1 C 12,1 C
26.05.2012 03:26 12,0 C 58 % 1026,4 hPa 0,0 l/m 4,0 km/h (1 Bft) O 90 4,0 C 12,0 C
26.05.2012 03:31 11,9 C 58 % 1026,4 hPa 0,0 l/m 6,8 km/h (2 Bft) O-NO 67 3,9 C 11,9 C
26.05.2012 03:36 11,9 C 58 % 1026,4 hPa 0,0 l/m 3,6 km/h (1 Bft) O-SO 112 3,9 C 11,9 C
26.05.2012 03:41 11,9 C 58 % 1026,2 hPa 0,0 l/m 4,0 km/h (1 Bft) O-NO 67 3,9 C 11,9 C
26.05.2012 03:46 11,9 C 58 % 1026,2 hPa 0,0 l/m 6,5 km/h (2 Bft) O 90 3,9 C 11,9 C
26.05.2012 03:51 11,8 C 58 % 1026,3 hPa 0,0 l/m 9,7 km/h (2 Bft) O-NO 67 3,8 C 11,8 C
26.05.2012 03:56 11,8 C 58 % 1026,3 hPa 0,0 l/m 6,1 km/h (2 Bft) O 90 3,8 C 11,8 C
26.05.2012 04:01 11,8 C 58 % 1026,3 hPa 0,0 l/m 4,7 km/h (1 Bft) O-SO 112 3,8 C 11,8 C
26.05.2012 04:06 11,8 C 58 % 1026,3 hPa 0,0 l/m 7,6 km/h (2 Bft) O-NO 67 3,8 C 11,8 C
26.05.2012 04:11 11,8 C 58 % 1026,4 hPa 0,0 l/m 3,2 km/h (1 Bft) O 90 3,8 C 11,8 C
26.05.2012 04:16 11,7 C 58 % 1026,3 hPa 0,0 l/m 8,3 km/h (2 Bft) O-NO 67 3,7 C 11,7 C
26.05.2012 04:21 11,6 C 58 % 1026,2 hPa 0,0 l/m 5,4 km/h (1 Bft) O 90 3,6 C 11,6 C
26.05.2012 04:26 11,6 C 58 % 1026,3 hPa 0,0 l/m 2,2 km/h (1 Bft) O-NO 67 3,6 C 11,6 C
26.05.2012 04:31 11,6 C 58 % 1026,4 hPa 0,0 l/m 2,5 km/h (1 Bft) O-SO 112 3,6 C 11,6 C
26.05.2012 04:36 11,5 C 58 % 1026,4 hPa 0,0 l/m 4,7 km/h (1 Bft) O 90 3,5 C 11,5 C
26.05.2012 04:41 11,4 C 59 % 1026,3 hPa 0,0 l/m 7,6 km/h (2 Bft) NO 45 3,7 C 11,4 C
26.05.2012 04:46 11,3 C 59 % 1026,4 hPa 0,0 l/m 4,7 km/h (1 Bft) NO 45 3,6 C 11,3 C
26.05.2012 04:51 11,3 C 59 % 1026,4 hPa 0,0 l/m 6,1 km/h (2 Bft) O-NO 67 3,6 C 11,3 C
26.05.2012 04:56 11,2 C 60 % 1026,2 hPa 0,0 l/m 5,4 km/h (1 Bft) O 90 3,7 C 11,2 C
26.05.2012 05:01 11,1 C 60 % 1026,3 hPa 0,0 l/m 6,8 km/h (2 Bft) NO 45 3,6 C 11,1 C
26.05.2012 05:06 11,0 C 61 % 1026,2 hPa 0,0 l/m 3,6 km/h (1 Bft) O-NO 67 3,8 C 11,0 C
26.05.2012 05:11 10,9 C 61 % 1026,1 hPa 0,0 l/m 3,6 km/h (1 Bft) O 90 3,7 C 10,9 C
26.05.2012 05:16 10,9 C 62 % 1026,1 hPa 0,0 l/m 3,2 km/h (1 Bft) O-NO 67 3,9 C 10,9 C
26.05.2012 05:21 10,9 C 62 % 1026,1 hPa 0,0 l/m 3,6 km/h (1 Bft) O 90 3,9 C 10,9 C
26.05.2012 05:26 10,9 C 62 % 1026,1 hPa 0,0 l/m 7,2 km/h (2 Bft) O-SO 112 3,9 C 10,9 C
26.05.2012 05:31 10,9 C 62 % 1026,2 hPa 0,0 l/m 0,0 km/h (0 Bft) O 90 3,9 C 10,9 C
26.05.2012 05:36 10,9 C 62 % 1026,3 hPa 0,0 l/m 4,7 km/h (1 Bft) O-NO 67 3,9 C 10,9 C
26.05.2012 05:41 11,1 C 63 % 1026,3 hPa 0,0 l/m 1,8 km/h (1 Bft) O 90 4,3 C 11,1 C
26.05.2012 05:46 11,4 C 63 % 1026,3 hPa 0,0 l/m 1,8 km/h (1 Bft) O-NO 67 4,6 C 11,4 C
26.05.2012 05:51 12,0 C 63 % 1026,3 hPa 0,0 l/m 0,0 km/h (0 Bft) O 90 5,2 C 12,0 C
26.05.2012 05:56 12,6 C 61 % 1026,4 hPa 0,0 l/m 0,0 km/h (0 Bft) O-NO 67 5,3 C 12,6 C
26.05.2012 06:01 13,0 C 61 % 1026,3 hPa 0,0 l/m 2,5 km/h (1 Bft) O 90 5,7 C 13,0 C
26.05.2012 06:06 13,4 C 59 % 1026,4 hPa 0,0 l/m 2,5 km/h (1 Bft) O-SO 112 5,6 C 13,4 C
26.05.2012 06:11 13,6 C 58 % 1026,4 hPa 0,0 l/m 2,5 km/h (1 Bft) O 90 5,5 C 13,6 C
26.05.2012 06:16 13,8 C 58 % 1026,3 hPa 0,0 l/m 3,6 km/h (1 Bft) O 90 5,7 C 13,8 C
26.05.2012 06:21 13,8 C 58 % 1026,4 hPa 0,0 l/m 6,1 km/h (2 Bft) O-SO 112 5,7 C 13,8 C
26.05.2012 06:26 13,6 C 58 % 1026,2 hPa 0,0 l/m 10,1 km/h (2 Bft) O-NO 67 5,5 C 13,6 C
26.05.2012 06:31 13,4 C 58 % 1026,3 hPa 0,0 l/m 5,8 km/h (2 Bft) O 90 5,3 C 13,4 C
26.05.2012 06:36 13,3 C 58 % 1026,4 hPa 0,0 l/m 7,6 km/h (2 Bft) O 90 5,2 C 13,3 C
26.05.2012 06:41 13,3 C 59 % 1026,6 hPa 0,0 l/m 4,7 km/h (1 Bft) O 90 5,5 C 13,3 C
26.05.2012 06:46 13,2 C 59 % 1026,3 hPa 0,0 l/m 3,6 km/h (1 Bft) O-SO 112 5,4 C 13,2 C
26.05.2012 06:51 13,2 C 59 % 1026,4 hPa 0,0 l/m 7,2 km/h (2 Bft) O-NO 67 5,4 C 13,2 C
26.05.2012 06:56 13,3 C 59 % 1026,3 hPa 0,0 l/m 1,1 km/h (1 Bft) O-SO 112 5,5 C 13,3 C
26.05.2012 07:01 13,4 C 59 % 1026,5 hPa 0,0 l/m 2,2 km/h (1 Bft) O-SO 112 5,6 C 13,4 C
26.05.2012 07:06 13,5 C 58 % 1026,5 hPa 0,0 l/m 5,0 km/h (1 Bft) O 90 5,4 C 13,5 C
26.05.2012 07:11 13,6 C 58 % 1026,3 hPa 0,0 l/m 4,0 km/h (1 Bft) SO 135 5,5 C 13,6 C
26.05.2012 07:16 13,8 C 57 % 1026,4 hPa 0,0 l/m 11,2 km/h (2 Bft) O-SO 112 5,4 C 13,8 C
26.05.2012 07:21 13,9 C 57 % 1026,4 hPa 0,0 l/m 9,4 km/h (2 Bft) O 90 5,5 C 13,9 C
26.05.2012 07:26 13,9 C 56 % 1026,4 hPa 0,0 l/m 4,0 km/h (1 Bft) NO 45 5,3 C 13,9 C
26.05.2012 07:31 13,9 C 56 % 1026,5 hPa 0,0 l/m 5,4 km/h (1 Bft) O-SO 112 5,3 C 13,9 C
26.05.2012 07:36 14,1 C 56 % 1026,5 hPa 0,0 l/m 9,7 km/h (2 Bft) O-NO 67 5,5 C 14,1 C
26.05.2012 07:41 14,2 C 56 % 1026,5 hPa 0,0 l/m 4,0 km/h (1 Bft) O-NO 67 5,6 C 14,2 C
26.05.2012 07:46 14,4 C 56 % 1026,5 hPa 0,0 l/m 9,4 km/h (2 Bft) O-NO 67 5,7 C 14,4 C
26.05.2012 07:51 14,8 C 56 % 1026,6 hPa 0,0 l/m 6,8 km/h (2 Bft) O-NO 67 6,1 C 14,8 C
26.05.2012 07:56 14,9 C 54 % 1026,7 hPa 0,0 l/m 5,4 km/h (1 Bft) O-NO 67 5,7 C 14,9 C
26.05.2012 08:01 14,9 C 54 % 1026,7 hPa 0,0 l/m 14,8 km/h (3 Bft) NO 45 5,7 C 14,9 C
26.05.2012 08:06 14,9 C 54 % 1026,7 hPa 0,0 l/m 6,5 km/h (2 Bft) O-NO 67 5,7 C 14,9 C
26.05.2012 08:11 15,1 C 53 % 1026,8 hPa 0,0 l/m 8,6 km/h (2 Bft) O-NO 67 5,6 C 15,1 C
26.05.2012 08:16 15,4 C 53 % 1026,5 hPa 0,0 l/m 4,7 km/h (1 Bft) O 90 5,9 C 15,4 C
26.05.2012 08:21 15,6 C 53 % 1026,6 hPa 0,0 l/m 7,2 km/h (2 Bft) O 90 6,1 C 15,6 C
26.05.2012 08:26 15,8 C 52 % 1026,5 hPa 0,0 l/m 7,2 km/h (2 Bft) O-NO 67 6,0 C 15,8 C
26.05.2012 08:31 16,0 C 52 % 1026,8 hPa 0,0 l/m 6,8 km/h (2 Bft) O 90 6,2 C 16,0 C
26.05.2012 08:36 16,1 C 51 % 1026,7 hPa 0,0 l/m 5,4 km/h (1 Bft) O-SO 112 6,0 C 16,1 C
26.05.2012 08:41 16,3 C 51 % 1026,6 hPa 0,0 l/m 2,5 km/h (1 Bft) O 90 6,1 C 16,3 C
26.05.2012 08:46 16,4 C 51 % 1026,6 hPa 0,0 l/m 2,5 km/h (1 Bft) O-NO 67 6,2 C 16,4 C
26.05.2012 08:51 16,5 C 51 % 1026,5 hPa 0,0 l/m 5,8 km/h (2 Bft) O 90 6,3 C 16,5 C
26.05.2012 08:56 16,8 C 50 % 1026,5 hPa 0,0 l/m 2,9 km/h (1 Bft) O 90 6,3 C 16,8 C
26.05.2012 09:01 17,1 C 50 % 1026,5 hPa 0,0 l/m 5,8 km/h (2 Bft) O-SO 112 6,6 C 17,1 C
26.05.2012 09:06 17,3 C 50 % 1026,5 hPa 0,0 l/m 4,0 km/h (1 Bft) O-NO 67 6,8 C 17,3 C
26.05.2012 09:11 17,4 C 50 % 1026,4 hPa 0,0 l/m 3,2 km/h (1 Bft) O-SO 112 6,9 C 17,4 C
26.05.2012 09:16 17,5 C 49 % 1026,4 hPa 0,0 l/m 4,0 km/h (1 Bft) O-NO 67 6,7 C 17,5 C
26.05.2012 09:21 17,6 C 49 % 1026,5 hPa 0,0 l/m 6,1 km/h (2 Bft) O-NO 67 6,8 C 17,6 C
26.05.2012 09:26 17,8 C 49 % 1026,7 hPa 0,0 l/m 2,9 km/h (1 Bft) O-SO 112 6,9 C 17,8 C
26.05.2012 09:31 17,9 C 49 % 1026,6 hPa 0,0 l/m 5,4 km/h (1 Bft) O 90 7,0 C 17,9 C
26.05.2012 09:36 18,1 C 49 % 1026,6 hPa 0,0 l/m 5,8 km/h (2 Bft) SO 135 7,2 C 18,1 C
26.05.2012 09:41 18,1 C 48 % 1026,6 hPa 0,0 l/m 9,0 km/h (2 Bft) O 90 6,9 C 18,1 C
26.05.2012 09:46 18,2 C 48 % 1026,6 hPa 0,0 l/m 4,7 km/h (1 Bft) N-NO 22 7,0 C 18,2 C
26.05.2012 09:51 18,4 C 48 % 1026,5 hPa 0,0 l/m 4,3 km/h (1 Bft) O-SO 112 7,2 C 18,4 C
26.05.2012 09:56 18,6 C 47 % 1026,4 hPa 0,0 l/m 5,0 km/h (1 Bft) S-SO 157 7,1 C 18,6 C
26.05.2012 10:01 18,6 C 47 % 1026,4 hPa 0,0 l/m 5,0 km/h (1 Bft) O-SO 112 7,1 C 18,6 C
26.05.2012 10:06 18,8 C 47 % 1026,6 hPa 0,0 l/m 1,1 km/h (1 Bft) O-SO 112 7,2 C 18,8 C
26.05.2012 10:11 18,9 C 47 % 1026,5 hPa 0,0 l/m 7,2 km/h (2 Bft) O-SO 112 7,3 C 18,9 C
26.05.2012 10:16 19,2 C 46 % 1026,6 hPa 0,0 l/m 3,6 km/h (1 Bft) O-SO 112 7,3 C 19,2 C
26.05.2012 10:21 19,4 C 46 % 1026,5 hPa 0,0 l/m 9,7 km/h (2 Bft) O-SO 112 7,5 C 19,4 C
26.05.2012 10:26 19,6 C 45 % 1026,4 hPa 0,0 l/m 12,2 km/h (2 Bft) O-SO 112 7,3 C 19,6 C
26.05.2012 10:31 19,6 C 45 % 1026,4 hPa 0,0 l/m 6,1 km/h (2 Bft) N-NO 22 7,3 C 19,6 C
26.05.2012 10:36 19,8 C 44 % 1026,5 hPa 0,0 l/m 14,8 km/h (3 Bft) O-NO 67 7,2 C 19,8 C
26.05.2012 10:41 19,8 C 45 % 1026,4 hPa 0,0 l/m 4,0 km/h (1 Bft) N 360 7,5 C 19,8 C
26.05.2012 10:46 19,9 C 44 % 1026,3 hPa 0,0 l/m 3,2 km/h (1 Bft) SO 135 7,3 C 19,9 C
26.05.2012 10:51 19,9 C 44 % 1026,7 hPa 0,0 l/m 8,6 km/h (2 Bft) O-SO 112 7,3 C 19,9 C
26.05.2012 10:56 20,2 C 43 % 1026,5 hPa 0,0 l/m 9,4 km/h (2 Bft) O-SO 112 7,2 C 20,2 C
26.05.2012 11:01 20,3 C 42 % 1026,4 hPa 0,0 l/m 4,0 km/h (1 Bft) O 90 7,0 C 20,3 C
26.05.2012 11:06 20,4 C 42 % 1026,2 hPa 0,0 l/m 10,1 km/h (2 Bft) NO 45 7,1 C 20,4 C
26.05.2012 11:11 20,4 C 41 % 1026,3 hPa 0,0 l/m 7,2 km/h (2 Bft) O-NO 67 6,7 C 20,4 C
26.05.2012 11:16 20,6 C 41 % 1026,3 hPa 0,0 l/m 9,7 km/h (2 Bft) O 90 6,9 C 20,6 C
26.05.2012 11:21 20,9 C 41 % 1026,2 hPa 0,0 l/m 8,6 km/h (2 Bft) O-NO 67 7,2 C 20,9 C
26.05.2012 11:26 21,1 C 39 % 1026,2 hPa 0,0 l/m 7,2 km/h (2 Bft) O-SO 112 6,6 C 21,1 C
26.05.2012 11:31 21,3 C 37 % 1026,2 hPa 0,0 l/m 4,3 km/h (1 Bft) O 90 6,0 C 21,3 C
26.05.2012 11:36 21,5 C 37 % 1026,1 hPa 0,0 l/m 1,1 km/h (1 Bft) S-SO 157 6,2 C 21,5 C
26.05.2012 11:41 21,6 C 36 % 1026,2 hPa 0,0 l/m 4,0 km/h (1 Bft) NO 45 5,9 C 21,6 C
26.05.2012 11:46 21,6 C 35 % 1026,1 hPa 0,0 l/m 8,3 km/h (2 Bft) O-NO 67 5,5 C 21,6 C
26.05.2012 11:51 21,6 C 34 % 1026,0 hPa 0,0 l/m 4,3 km/h (1 Bft) O 90 5,1 C 21,6 C
26.05.2012 11:56 21,8 C 34 % 1026,2 hPa 0,0 l/m 2,2 km/h (1 Bft) O-NO 67 5,2 C 21,8 C
26.05.2012 12:01 22,1 C 33 % 1026,1 hPa 0,0 l/m 8,6 km/h (2 Bft) O-NO 67 5,1 C 22,1 C
26.05.2012 12:06 22,0 C 32 % 1026,0 hPa 0,0 l/m 4,7 km/h (1 Bft) O-SO 112 4,5 C 22,0 C
26.05.2012 12:11 22,1 C 32 % 1025,7 hPa 0,0 l/m 2,9 km/h (1 Bft) O 90 4,6 C 22,1 C
26.05.2012 12:16 22,2 C 31 % 1025,8 hPa 0,0 l/m 14,4 km/h (3 Bft) O 90 4,3 C 22,2 C
26.05.2012 12:21 22,3 C 32 % 1025,7 hPa 0,0 l/m 6,1 km/h (2 Bft) SO 135 4,8 C 22,3 C
26.05.2012 12:26 22,4 C 32 % 1025,7 hPa 0,0 l/m 7,2 km/h (2 Bft) SO 135 4,9 C 22,4 C
26.05.2012 12:31 22,6 C 31 % 1025,7 hPa 0,0 l/m 8,6 km/h (2 Bft) O 90 4,6 C 22,6 C
26.05.2012 12:36 22,7 C 32 % 1025,6 hPa 0,0 l/m 5,4 km/h (1 Bft) O 90 5,2 C 22,7 C
26.05.2012 12:41 22,9 C 32 % 1025,5 hPa 0,0 l/m 4,7 km/h (1 Bft) S-SO 157 5,3 C 22,9 C
26.05.2012 12:46 23,1 C 32 % 1025,5 hPa 0,0 l/m 3,2 km/h (1 Bft) NO 45 5,5 C 23,1 C
26.05.2012 12:51 23,1 C 31 % 1025,3 hPa 0,0 l/m 3,6 km/h (1 Bft) O-SO 112 5,0 C 23,1 C
26.05.2012 12:56 23,2 C 31 % 1025,4 hPa 0,0 l/m 0,0 km/h (0 Bft) N 360 5,1 C 23,2 C
26.05.2012 13:01 23,3 C 31 % 1025,4 hPa 0,0 l/m 5,8 km/h (2 Bft) O 90 5,2 C 23,3 C
26.05.2012 13:06 23,4 C 30 % 1025,4 hPa 0,0 l/m 6,1 km/h (2 Bft) S 180 4,8 C 23,4 C
26.05.2012 13:11 23,5 C 30 % 1025,1 hPa 0,0 l/m 11,5 km/h (2 Bft) NO 45 4,9 C 23,5 C
26.05.2012 13:16 23,5 C 29 % 1025,2 hPa 0,0 l/m 6,1 km/h (2 Bft) O 90 4,4 C 23,5 C
26.05.2012 13:21 23,6 C 29 % 1025,2 hPa 0,0 l/m 8,3 km/h (2 Bft) O-SO 112 4,5 C 23,6 C
26.05.2012 13:26 23,8 C 28 % 1025,3 hPa 0,0 l/m 1,8 km/h (1 Bft) O-SO 112 4,2 C 23,8 C
26.05.2012 13:31 23,9 C 28 % 1025,2 hPa 0,0 l/m 1,4 km/h (1 Bft) O-SO 112 4,3 C 23,9 C
26.05.2012 13:36 24,1 C 27 % 1025,1 hPa 0,0 l/m 3,6 km/h (1 Bft) O-SO 112 3,9 C 24,1 C
26.05.2012 13:41 24,1 C 27 % 1025,1 hPa 0,0 l/m 2,9 km/h (1 Bft) O 90 3,9 C 24,1 C
26.05.2012 13:46 24,1 C 25 % 1025,0 hPa 0,0 l/m 5,8 km/h (2 Bft) O 90 2,8 C 24,1 C
26.05.2012 13:51 24,2 C 25 % 1024,8 hPa 0,0 l/m 6,1 km/h (2 Bft) O-NO 67 2,9 C 24,2 C
26.05.2012 13:56 24,5 C 25 % 1024,8 hPa 0,0 l/m 5,8 km/h (2 Bft) O-NO 67 3,2 C 24,5 C
26.05.2012 14:01 24,6 C 24 % 1024,7 hPa 0,0 l/m 13,3 km/h (3 Bft) O-SO 112 2,7 C 24,6 C
26.05.2012 14:06 24,5 C 25 % 1024,7 hPa 0,0 l/m 2,9 km/h (1 Bft) O 90 3,2 C 24,5 C
26.05.2012 14:11 24,6 C 25 % 1024,6 hPa 0,0 l/m 4,7 km/h (1 Bft) SO 135 3,3 C 24,6 C
26.05.2012 14:16 24,9 C 25 % 1024,5 hPa 0,0 l/m 2,9 km/h (1 Bft) SO 135 3,5 C 24,9 C
26.05.2012 14:21 25,3 C 24 % 1024,5 hPa 0,0 l/m 9,7 km/h (2 Bft) O-SO 112 3,3 C 25,3 C
26.05.2012 14:26 25,1 C 24 % 1024,4 hPa 0,0 l/m 2,9 km/h (1 Bft) O-NO 67 3,1 C 25,1 C
26.05.2012 14:31 25,1 C 24 % 1024,4 hPa 0,0 l/m 3,2 km/h (1 Bft) O 90 3,1 C 25,1 C
26.05.2012 14:36 25,2 C 24 % 1024,6 hPa 0,0 l/m 0,0 km/h (0 Bft) O-SO 112 3,2 C 25,2 C
26.05.2012 14:41 25,4 C 24 % 1024,6 hPa 0,0 l/m 9,0 km/h (2 Bft) O 90 3,4 C 25,4 C
26.05.2012 14:46 25,3 C 24 % 1024,5 hPa 0,0 l/m 1,4 km/h (1 Bft) SO 135 3,3 C 25,3 C
26.05.2012 14:51 25,5 C 24 % 1024,4 hPa 0,0 l/m 6,1 km/h (2 Bft) S-SO 157 3,4 C 25,5 C
26.05.2012 14:56 25,5 C 24 % 1024,4 hPa 0,0 l/m 6,5 km/h (2 Bft) O-SO 112 3,4 C 25,5 C
26.05.2012 15:01 25,5 C 23 % 1024,4 hPa 0,0 l/m 13,3 km/h (3 Bft) O-SO 112 2,8 C 25,5 C
26.05.2012 15:06 25,2 C 24 % 1024,4 hPa 0,0 l/m 6,5 km/h (2 Bft) O-NO 67 3,2 C 25,2 C
26.05.2012 15:11 25,1 C 24 % 1024,3 hPa 0,0 l/m 5,4 km/h (1 Bft) O 90 3,1 C 25,1 C
26.05.2012 15:16 25,1 C 24 % 1024,2 hPa 0,0 l/m 5,4 km/h (1 Bft) O-SO 112 3,1 C 25,1 C
26.05.2012 15:21 25,4 C 24 % 1024,2 hPa 0,0 l/m 7,6 km/h (2 Bft) O-SO 112 3,4 C 25,4 C
26.05.2012 15:26 25,3 C 23 % 1024,1 hPa 0,0 l/m 0,0 km/h (0 Bft) NO 45 2,7 C 25,3 C
26.05.2012 15:31 25,4 C 24 % 1024,0 hPa 0,0 l/m 7,6 km/h (2 Bft) O-NO 67 3,4 C 25,4 C
26.05.2012 15:36 25,3 C 23 % 1024,0 hPa 0,0 l/m 7,2 km/h (2 Bft) NO 45 2,7 C 25,3 C
26.05.2012 15:41 25,2 C 23 % 1024,0 hPa 0,0 l/m 6,8 km/h (2 Bft) N-NO 22 2,6 C 25,2 C
26.05.2012 15:46 25,3 C 23 % 1024,1 hPa 0,0 l/m 5,4 km/h (1 Bft) SO 135 2,7 C 25,3 C
26.05.2012 15:51 25,5 C 24 % 1023,8 hPa 0,0 l/m 2,5 km/h (1 Bft) S-SO 157 3,4 C 25,5 C
26.05.2012 15:56 25,9 C 24 % 1024,0 hPa 0,0 l/m 0,0 km/h (0 Bft) SO 135 3,8 C 25,9 C
26.05.2012 16:01 26,0 C 24 % 1023,9 hPa 0,0 l/m 0,0 km/h (0 Bft) O-SO 112 3,9 C 26,0 C
26.05.2012 16:06 26,2 C 23 % 1023,7 hPa 0,0 l/m 4,3 km/h (1 Bft) O-NO 67 3,4 C 26,2 C
26.05.2012 16:11 26,0 C 23 % 1023,8 hPa 0,0 l/m 5,8 km/h (2 Bft) NO 45 3,3 C 26,0 C
26.05.2012 16:16 25,9 C 23 % 1023,8 hPa 0,0 l/m 0,0 km/h (0 Bft) O 90 3,2 C 25,9 C
26.05.2012 16:21 25,9 C 23 % 1023,8 hPa 0,0 l/m 6,1 km/h (2 Bft) NO 45 3,2 C 25,9 C
26.05.2012 16:26 25,8 C 23 % 1023,7 hPa 0,0 l/m 13,0 km/h (3 Bft) O-NO 67 3,1 C 25,8 C
26.05.2012 16:31 25,6 C 23 % 1023,6 hPa 0,0 l/m 8,3 km/h (2 Bft) O-SO 112 2,9 C 25,6 C
26.05.2012 16:36 25,5 C 23 % 1023,7 hPa 0,0 l/m 5,0 km/h (1 Bft) O 90 2,8 C 25,5 C
26.05.2012 16:41 25,4 C 23 % 1023,5 hPa 0,0 l/m 2,5 km/h (1 Bft) SO 135 2,8 C 25,4 C
26.05.2012 16:46 25,5 C 24 % 1023,5 hPa 0,0 l/m 6,1 km/h (2 Bft) O 90 3,4 C 25,5 C
26.05.2012 16:51 25,7 C 24 % 1023,3 hPa 0,0 l/m 5,8 km/h (2 Bft) SO 135 3,6 C 25,7 C
26.05.2012 16:56 25,9 C 24 % 1023,4 hPa 0,0 l/m 4,0 km/h (1 Bft) O 90 3,8 C 25,9 C
26.05.2012 17:01 25,9 C 23 % 1023,3 hPa 0,0 l/m 7,2 km/h (2 Bft) O 90 3,2 C 25,9 C
26.05.2012 17:06 25,9 C 23 % 1023,4 hPa 0,0 l/m 14,4 km/h (3 Bft) NO 45 3,2 C 25,9 C
26.05.2012 17:11 25,8 C 23 % 1023,2 hPa 0,0 l/m 6,1 km/h (2 Bft) O-NO 67 3,1 C 25,8 C
26.05.2012 17:16 25,5 C 24 % 1023,3 hPa 0,0 l/m 15,1 km/h (3 Bft) NO 45 3,4 C 25,5 C
26.05.2012 17:21 25,3 C 24 % 1023,4 hPa 0,0 l/m 10,4 km/h (2 Bft) O-NO 67 3,3 C 25,3 C
26.05.2012 17:26 25,1 C 24 % 1023,3 hPa 0,0 l/m 5,0 km/h (1 Bft) O 90 3,1 C 25,1 C
26.05.2012 17:31 25,1 C 25 % 1023,1 hPa 0,0 l/m 3,6 km/h (1 Bft) O-NO 67 3,7 C 25,1 C
26.05.2012 17:36 25,3 C 25 % 1023,2 hPa 0,0 l/m 6,1 km/h (2 Bft) O 90 3,9 C 25,3 C
26.05.2012 17:41 25,3 C 27 % 1023,2 hPa 0,0 l/m 3,2 km/h (1 Bft) O-SO 112 4,9 C 25,3 C
26.05.2012 17:46 25,3 C 27 % 1023,2 hPa 0,0 l/m 11,2 km/h (2 Bft) O-NO 67 4,9 C 25,3 C
26.05.2012 17:51 25,3 C 27 % 1023,2 hPa 0,0 l/m 14,8 km/h (3 Bft) O 90 4,9 C 25,3 C
26.05.2012 17:56 25,2 C 27 % 1023,1 hPa 0,0 l/m 3,6 km/h (1 Bft) NO 45 4,9 C 25,2 C
26.05.2012 18:01 25,2 C 28 % 1023,0 hPa 0,0 l/m 6,1 km/h (2 Bft) O 90 5,4 C 25,2 C
26.05.2012 18:06 25,1 C 28 % 1023,1 hPa 0,0 l/m 9,7 km/h (2 Bft) O-NO 67 5,3 C 25,1 C
26.05.2012 18:11 24,9 C 28 % 1023,0 hPa 0,0 l/m 7,6 km/h (2 Bft) N-NO 22 5,1 C 24,9 C
26.05.2012 18:16 24,8 C 28 % 1023,1 hPa 0,0 l/m 12,6 km/h (3 Bft) NO 45 5,0 C 24,8 C
26.05.2012 18:21 24,6 C 28 % 1023,0 hPa 0,0 l/m 8,3 km/h (2 Bft) NO 45 4,9 C 24,6 C
26.05.2012 18:26 24,5 C 28 % 1022,8 hPa 0,0 l/m 13,0 km/h (3 Bft) O-SO 112 4,8 C 24,5 C
26.05.2012 18:31 24,4 C 28 % 1022,9 hPa 0,0 l/m 8,6 km/h (2 Bft) NO 45 4,7 C 24,4 C
26.05.2012 18:36 24,3 C 29 % 1022,9 hPa 0,0 l/m 10,1 km/h (2 Bft) NO 45 5,1 C 24,3 C
26.05.2012 18:41 24,3 C 29 % 1022,8 hPa 0,0 l/m 4,7 km/h (1 Bft) O 90 5,1 C 24,3 C
26.05.2012 18:46 24,3 C 29 % 1022,9 hPa 0,0 l/m 9,4 km/h (2 Bft) O 90 5,1 C 24,3 C
26.05.2012 18:51 24,1 C 29 % 1022,9 hPa 0,0 l/m 13,0 km/h (3 Bft) O-NO 67 4,9 C 24,1 C
26.05.2012 18:56 24,1 C 29 % 1022,9 hPa 0,0 l/m 11,2 km/h (2 Bft) O-NO 67 4,9 C 24,1 C
26.05.2012 19:01 23,9 C 30 % 1023,0 hPa 0,0 l/m 11,9 km/h (2 Bft) NO 45 5,3 C 23,9 C
26.05.2012 19:06 23,8 C 30 % 1023,0 hPa 0,0 l/m 4,3 km/h (1 Bft) NO 45 5,2 C 23,8 C
26.05.2012 19:11 23,6 C 31 % 1022,9 hPa 0,0 l/m 8,6 km/h (2 Bft) O 90 5,5 C 23,6 C
26.05.2012 19:16 23,4 C 31 % 1022,9 hPa 0,0 l/m 8,6 km/h (2 Bft) O-NO 67 5,3 C 23,4 C
26.05.2012 19:21 23,3 C 32 % 1023,0 hPa 0,0 l/m 5,8 km/h (2 Bft) N-NO 22 5,7 C 23,3 C
26.05.2012 19:26 23,1 C 32 % 1023,0 hPa 0,0 l/m 4,0 km/h (1 Bft) O-NO 67 5,5 C 23,1 C
26.05.2012 19:31 23,0 C 33 % 1023,1 hPa 0,0 l/m 9,7 km/h (2 Bft) O 90 5,9 C 23,0 C
26.05.2012 19:36 22,9 C 33 % 1023,1 hPa 0,0 l/m 7,9 km/h (2 Bft) O-NO 67 5,8 C 22,9 C
26.05.2012 19:41 22,8 C 33 % 1023,1 hPa 0,0 l/m 8,6 km/h (2 Bft) O-NO 67 5,7 C 22,8 C
26.05.2012 19:46 22,8 C 33 % 1023,1 hPa 0,0 l/m 8,3 km/h (2 Bft) O-NO 67 5,7 C 22,8 C
26.05.2012 19:51 22,8 C 33 % 1023,1 hPa 0,0 l/m 10,1 km/h (2 Bft) NO 45 5,7 C 22,8 C
26.05.2012 19:56 22,8 C 33 % 1023,1 hPa 0,0 l/m 13,7 km/h (3 Bft) O-NO 67 5,7 C 22,8 C
26.05.2012 20:01 22,6 C 34 % 1023,1 hPa 0,0 l/m 6,5 km/h (2 Bft) O-NO 67 5,9 C 22,6 C
26.05.2012 20:06 22,5 C 34 % 1023,0 hPa 0,0 l/m 8,3 km/h (2 Bft) NO 45 5,9 C 22,5 C
26.05.2012 20:11 22,5 C 34 % 1023,1 hPa 0,0 l/m 10,4 km/h (2 Bft) O 90 5,9 C 22,5 C
26.05.2012 20:16 22,4 C 34 % 1023,1 hPa 0,0 l/m 2,2 km/h (1 Bft) NO 45 5,8 C 22,4 C
26.05.2012 20:21 22,3 C 35 % 1023,1 hPa 0,0 l/m 6,8 km/h (2 Bft) O 90 6,1 C 22,3 C
26.05.2012 20:26 22,1 C 34 % 1023,1 hPa 0,0 l/m 8,3 km/h (2 Bft) O-SO 112 5,5 C 22,1 C
26.05.2012 20:31 21,9 C 35 % 1023,1 hPa 0,0 l/m 4,0 km/h (1 Bft) O 90 5,7 C 21,9 C
26.05.2012 20:36 21,8 C 35 % 1023,0 hPa 0,0 l/m 5,4 km/h (1 Bft) O-SO 112 5,7 C 21,8 C
26.05.2012 20:41 21,6 C 35 % 1022,9 hPa 0,5 l/m 7,9 km/h (2 Bft) O 90 5,5 C 21,6 C
26.05.2012 20:46 21,5 C 35 % 1023,0 hPa 0,0 l/m 4,7 km/h (1 Bft) O 90 5,4 C 21,5 C
26.05.2012 20:51 21,4 C 35 % 1023,0 hPa 0,0 l/m 1,8 km/h (1 Bft) O 90 5,3 C 21,4 C
26.05.2012 20:56 21,3 C 36 % 1023,0 hPa 0,0 l/m 6,1 km/h (2 Bft) O 90 5,6 C 21,3 C
26.05.2012 21:01 21,2 C 36 % 1022,9 hPa 0,0 l/m 3,2 km/h (1 Bft) O 90 5,5 C 21,2 C
26.05.2012 21:06 21,1 C 36 % 1023,0 hPa 0,0 l/m 5,0 km/h (1 Bft) O 90 5,4 C 21,1 C
26.05.2012 21:11 21,0 C 36 % 1023,2 hPa 0,0 l/m 2,5 km/h (1 Bft) O 90 5,4 C 21,0 C
26.05.2012 21:16 20,9 C 36 % 1023,3 hPa 0,0 l/m 6,5 km/h (2 Bft) O-NO 67 5,3 C 20,9 C
26.05.2012 21:21 20,8 C 37 % 1023,2 hPa 0,0 l/m 4,0 km/h (1 Bft) O-NO 67 5,6 C 20,8 C
26.05.2012 21:26 20,6 C 37 % 1023,3 hPa 0,0 l/m 6,5 km/h (2 Bft) O-SO 112 5,4 C 20,6 C
26.05.2012 21:31 20,5 C 37 % 1023,4 hPa 0,0 l/m 5,8 km/h (2 Bft) O-NO 67 5,3 C 20,5 C
26.05.2012 21:36 20,4 C 37 % 1023,3 hPa 0,0 l/m 2,5 km/h (1 Bft) O-NO 67 5,2 C 20,4 C
26.05.2012 21:41 20,3 C 37 % 1023,2 hPa 0,0 l/m 2,2 km/h (1 Bft) O 90 5,1 C 20,3 C
26.05.2012 21:46 20,2 C 37 % 1023,5 hPa 0,0 l/m 5,0 km/h (1 Bft) O-NO 67 5,0 C 20,2 C
26.05.2012 21:51 20,1 C 37 % 1023,5 hPa 0,0 l/m 5,0 km/h (1 Bft) O-NO 67 5,0 C 20,1 C
26.05.2012 21:56 19,9 C 37 % 1023,5 hPa 0,0 l/m 2,9 km/h (1 Bft) O 90 4,8 C 19,9 C
26.05.2012 22:01 19,8 C 37 % 1023,5 hPa 0,0 l/m 2,9 km/h (1 Bft) NO 45 4,7 C 19,8 C
26.05.2012 22:06 19,7 C 38 % 1023,5 hPa 0,0 l/m 5,0 km/h (1 Bft) O 90 5,0 C 19,7 C
26.05.2012 22:11 19,6 C 38 % 1023,6 hPa 0,0 l/m 2,5 km/h (1 Bft) O-NO 67 4,9 C 19,6 C
26.05.2012 22:16 19,6 C 38 % 1023,6 hPa 0,0 l/m 3,6 km/h (1 Bft) N-NO 22 4,9 C 19,6 C
26.05.2012 22:21 19,5 C 39 % 1023,7 hPa 0,0 l/m 5,0 km/h (1 Bft) O-NO 67 5,2 C 19,5 C
26.05.2012 22:26 19,4 C 39 % 1023,7 hPa 0,0 l/m 3,6 km/h (1 Bft) O-NO 67 5,1 C 19,4 C
26.05.2012 22:31 19,4 C 39 % 1023,7 hPa 0,0 l/m 4,0 km/h (1 Bft) O-NO 67 5,1 C 19,4 C
26.05.2012 22:36 19,3 C 39 % 1023,7 hPa 0,0 l/m 4,7 km/h (1 Bft) O-NO 67 5,0 C 19,3 C
26.05.2012 22:41 19,3 C 39 % 1023,7 hPa 0,0 l/m 2,9 km/h (1 Bft) O-NO 67 5,0 C 19,3 C
26.05.2012 22:46 19,3 C 39 % 1023,7 hPa 0,0 l/m 1,8 km/h (1 Bft) O-NO 67 5,0 C 19,3 C
26.05.2012 22:51 19,3 C 39 % 1023,6 hPa 0,0 l/m 5,8 km/h (2 Bft) O-NO 67 5,0 C 19,3 C
26.05.2012 22:56 19,2 C 39 % 1023,7 hPa 0,0 l/m 7,2 km/h (2 Bft) O 90 4,9 C 19,2 C
26.05.2012 23:01 19,1 C 39 % 1023,7 hPa 0,0 l/m 5,4 km/h (1 Bft) O 90 4,8 C 19,1 C
26.05.2012 23:06 18,9 C 40 % 1023,8 hPa 0,0 l/m 8,3 km/h (2 Bft) O-NO 67 5,0 C 18,9 C
26.05.2012 23:11 18,8 C 40 % 1023,7 hPa 0,0 l/m 2,2 km/h (1 Bft) O 90 4,9 C 18,8 C
26.05.2012 23:16 18,8 C 40 % 1023,8 hPa 0,0 l/m 5,4 km/h (1 Bft) O 90 4,9 C 18,8 C
26.05.2012 23:21 18,7 C 40 % 1023,8 hPa 0,0 l/m 7,6 km/h (2 Bft) O 90 4,8 C 18,7 C
26.05.2012 23:26 18,6 C 41 % 1023,7 hPa 0,0 l/m 1,4 km/h (1 Bft) O-NO 67 5,1 C 18,6 C
26.05.2012 23:31 18,5 C 41 % 1023,7 hPa 0,0 l/m 6,1 km/h (2 Bft) O-NO 67 5,0 C 18,5 C
26.05.2012 23:36 18,4 C 41 % 1023,7 hPa 0,0 l/m 5,0 km/h (1 Bft) O-NO 67 4,9 C 18,4 C
26.05.2012 23:41 18,3 C 42 % 1023,8 hPa 0,0 l/m 5,8 km/h (2 Bft) O 90 5,2 C 18,3 C
26.05.2012 23:46 18,2 C 43 % 1023,7 hPa 0,0 l/m 12,2 km/h (2 Bft) O-NO 67 5,4 C 18,2 C
26.05.2012 23:51 18,1 C 43 % 1023,6 hPa 0,0 l/m 3,2 km/h (1 Bft) NO 45 5,3 C 18,1 C
26.05.2012 23:56 18,0 C 44 % 1023,6 hPa 0,0 l/m 4,0 km/h (1 Bft) O-NO 67 5,6 C 18,0 C
_ Min-Zeit 05:11 15:01 18:26 - 00:26 - - 15:41 05:11
Minimum _ 10,9 C 23 % 1022,8 hPa - 0,0 km/h (0 Bft) - - 2,6 C 10,9 C
_ Max-Zeit 16:06 05:41 00:01 20:41 17:16 - - 10:41 16:06
Maximum _ 26,2 C 63 % 1026,8 hPa 0,5 l/m 15,1 km/h
NO (3 Bft)
- - 7,5 C 26,2 C
Durchschnitt _ 18,9 C 42 % 1025,1 hPa #0,5 l/m 5,7 km/h (1 Bft) O-NO - 4,8 C 18,9 C
(c) by David Heller